• Join FlightAware (Why Join?)
  • Login
  • US Flag 
10:51AM EDT


 

Airport Tracker/Info


-or-


 

Live Flight TrackerFlight Track Log ✈ N3747T ✈ 14-Jul-2014 ✈ KFMY - KPMP

Flight Track Log - Related Links

Times and Time Zones

All times are in EDT time to prevent confusion due to time zone crossing. See the N3747T flight status page for this flight to view local times or setup timezone preferences in your user account.

Time Position Orientation Groundspeed Altitude Reporting Facility
EDT Latitude Longitude Course Direction KTS MPH feet Rate Location/Type
04:06PM 26.5094 -81.9178 157° South 117 135 3,100  Level Miami Center
04:07PM 26.4978 -81.8797 109° East 133 153 4,100 780 Climbing Miami Center
04:08PM 26.4800 -81.8408 117° Southeast 132 152 4,700 360 Climbing Miami Center
04:09PM 26.4631 -81.7975 114° Southeast 157 181 4,900 60 Climbing Miami Center
04:10PM 26.5340 -81.5836 138° Southeast  Level Estimated
04:10PM 26.4419 -81.7464 115° Southeast 166 191 4,900  Level Miami Center
04:11PM 26.4949 -81.5648 157° South  Level FlightAware Approximate
04:11PM 26.4228 -81.6989 114° Southeast 170 196 4,900  Level Miami Center
04:12PM 26.4017 -81.6481 115° Southeast 170 196 4,900  Level Miami Center
04:13PM 26.3903 -81.5983 104° East 169 194 4,900  Level Miami Center
04:14PM 26.3750 -81.5447 108° East 170 196 4,900  Level Miami Center
04:15PM 26.3600 -81.4953 109° East 169 194 4,900  Level Miami Center
04:16PM 26.3483 -81.4394 103° East 172 198 4,900  Level Miami Center
04:17PM 26.3386 -81.3875 102° East 173 199 4,900  Level Miami Center
04:18PM 26.3244 -81.3322 106° East 173 199 4,900  Level Miami Center
04:19PM 26.3125 -81.2806 104° East 175 201 4,900  Level Miami Center
04:20PM 26.3042 -81.2242 99° East 175 201 4,900  Level Miami Center
04:21PM 26.3006 -81.1722 94° East 172 198 4,900  Level Miami Center
04:22PM 26.3025 -81.1156 88° East 172 198 4,900  Level Miami Center
04:23PM 26.3117 -81.0633 79° East 173 199 4,900  Level Miami Center
04:24PM 26.3161 -81.0114 85° East 159 183 4,900  Level Miami Center
04:25PM 26.3106 -80.9578 97° East 162 186 4,900  Level Miami Center
04:26PM 26.3061 -80.9156 97° East 163 188 4,900  Level Miami Center
04:26PM 26.3056 -80.9075 94° East 163 188 4,900 -120 Level Miami Center
04:27PM 26.3019 -80.8550 94° East 168 193 4,800 -360 Descending Miami Center
04:28PM 26.2972 -80.7964 95° East 197 227 4,300 -540 Descending Miami Center
04:29PM 26.2928 -80.7356 95° East 195 224 3,800 -540 Descending Miami Center
04:30PM 26.2886 -80.6747 94° East 194 223 3,300 -480 Descending Miami Center
04:31PM 26.2836 -80.6208 96° East 189 217 2,900 -540 Descending Miami Center
04:31PM 26.2836 -80.6083 90° East 188 216 2,700 -540 Descending Miami Center
04:32PM 26.2811 -80.5650 94° East 184 212 2,400 -420 Descending Miami Center
04:32PM 26.2797 -80.5514 96° East 187 215 2,300 -300 Descending Miami Center
04:33PM 26.2767 -80.5019 94° East 179 206 2,100 -300 Descending Miami Center
04:34PM 26.2753 -80.4919 99° East 182 209 2,000 -240 Descending Miami Center
04:34PM 26.2719 -80.4458 95° East 182 209 1,900 -120 Descending Miami Center
04:35PM 26.2717 -80.4372 92° East 181 208 1,900 -240 Level Miami Center
04:35PM 26.2669 -80.3919 97° East 180 207 1,700 -300 Descending Miami Center
04:36PM 26.2678 -80.3811 85° East 181 208 1,600 -300 Descending Miami Center
04:36PM 26.2642 -80.3358 95° East 152 175 1,400 -240 Descending Miami Center
04:37PM 26.2631 -80.3250 97° East 169 194 1,400  Level Miami Center
04:37PM 26.2608 -80.2914 94° East 143 165 1,400  Level Miami Center
04:38PM 26.2606 -80.2808 92° East 146 168 1,400  Level Miami Center
04:38PM 26.2633 -80.2522 84° East 139 160 1,400  Level Miami Center
04:39PM 26.2669 -80.2347 77° East 142 163 1,400  Level Miami Center
04:39PM 26.2683 -80.2039 87° East 137 158 1,400 -240 Level Miami Center
04:40PM 26.2697 -80.1922 82° East 142 163 1,200 -420 Descending Miami Center
04:41PM 26.2542 -80.1514 113° Southeast 146 168 900 -540 Descending Miami Center
04:42PM 26.2458 -80.1300 113° Southeast 84 97 300 -840 Descending Miami Center